world map with LIO marked

LIO - Airport

This information may not be accurate or current and is not valid for navigation or flight planning. No warranty of fitness for any purpose is made or implied.

flag of Costa Rica

Donate via PayPal

Additional information is available on the NEW Great Circle Mapper

Location
City:  Puerto Limón, Limón, Costa Rica
Name:Puerto Limón International Airport
ICAO / IATA:MRLM / LIO

Details
Type:Airport (Aerodrome, Airfield)
Use:Public/Civil
Latitude:9°57'29"N (9.958056)
Longitude:83°01'19"W (-83.021943)
Elevation:7 ft (2 m)
Runways:1
Longest:5906 × 98 ft (1800 × 30 m)

Time
Timezone:UTC+28:08
Local Time:

Weather
METAR:MRLM  250000Z 36006KT 9999 SCT010 SCT130 28/25 A2982
TAF:MRLM  (expired)

Related Locations
Nearby:
Farthest:CCK: 12276 mi / 19757 km
West Island (Pulau Panjang) [Cocos (Keeling) Islands], CC

Find:

   beyond  
but within

Other Information
Maps:
Links:
Sources:

  


 


Great Circle Mapper   Great Circle Mapper
Great Circle Mapper FAQ   Great Circle Mapper FAQ
  Karl's Home Page
KLS˛   KLS˛ Home
   GC on Facebook
Airlines of the World   Airlines of the World
Donate via PayPal


Copyright © 2004-2014, Karl L. Swartz. All rights reserved.
All trademarks mentioned herein belong to their respective owners.

Please see credits for attribution and copyright information.

Karl Swartz <karl@kls2.com>
  Powered by FreeBSD
Valid HTML 4.01!
Labeled with ICRA
hCard Microformat
Geo Microformat